Airfield :
LOGIN :

Register | Disclaimer

   EN    FR    IT 

 










Legend :    VFR   Marginal VFR   IFR   Intensive IFR   Very Intensive IFR
Visi :
Ceiling :
>= 8 km
>= 3000ft
5 to 8 km
1000 to 3000 ft
1500m to 5 km
500 to 1000 ft
800 to 1500m
200 to 500 ft
< 800m
< 200 ft
Symbols :   Thunderstorms  Fog  Heavy snow  Heavy precipitations  Wind > 20 kt
SIGMETs :     Misc.  Thunderstorms  Icing  Turbulence  Mountain Waves  Volcanic Ashes







- Airport Elevation : 124 ft
- IATA code : AVN
- Download approach charts


LFMV - Avignon Caumont

CURRENT METAR :
  • 190830Z AUTO VRB03KT 9999 OVC046 07/02 Q1024 NOSIG

EXPIRED METARs :
  • 190800Z AUTO VRB03KT 9999 FEW046 05/02 Q1024 TEMPO 1000 BCFG
  • 190730Z AUTO VRB02KT CAVOK 03/01 Q1024 TEMPO 1000 BCFG
  • 190700Z AUTO 00000KT CAVOK 02/00 Q1023 TEMPO 1000 BCFG
  • 190630Z AUTO 01003KT 6000 NSC 00/M01 Q1023 TEMPO 1000 BCFG
  • 190600Z AUTO VRB03KT 6000 NSC 01/M00 Q1023 TEMPO 1000 BCFG

TAF TAF LFMV
Valid from the 19 at 09:00 until the 20 at 09:00 UTC


190800Z 1909/2009 VRB03KT CAVOK
TEMPO 1909/1913 BKN015
TEMPO 1919/2009 2500 BR
TEMPO 2000/2006 0500 FG VV///
ATIS : +33 4 90 84 32 84
No reported NOTAMs for that airfield.



MET'MAP, your aeronautical weather chart ! - Copyright ORBIFLY December 2007 - Disclaimer

ORBIFLY MET'MAP TEAM :

Programming & Development : Alexandra Zaïnal
Concept & Development : Baudouin d'Aumeries
Co-Development & Prog : Marc-Olivier Méhu
Technical & hardware support : Manuel Goepfert

Contact : metmap@orbifly.com




SOURCES & CREDITS :

   NOAA